Time;durP1;ratioP1;P1;durP2;ratioP2;P2;SDS_P1;SDS_P2;PMS_P1;PMS_P2;Temp;Humidity;BMP_temperature;BMP_pressure;BME280_temperature;BME280_humidity;BME280_pressure;Samples;Min_cycle;Max_cycle;Signal;HPM_P1;HPM_P2
2024/02/12 00:02:18;;;;;;;2.33;2.13;;;;;;;;;;4993608;28;20211;-58
2024/02/12 00:04:47;;;;;;;2.67;1.80;;;;;;;;;;4953990;28;20413;-59
2024/02/12 00:07:16;;;;;;;3.27;2.40;;;;;;;;;;4954725;29;20238;-58
2024/02/12 00:09:44;;;;;;;2.27;2.10;;;;;;;;;;4954749;28;20698;-59
2024/02/12 00:12:13;;;;;;;2.20;2.10;;;;;;;;;;4954507;29;20258;-59
2024/02/12 00:14:40;;;;;;;1.80;1.70;;;;;;;;;;4990773;28;20221;-59
2024/02/12 00:17:09;;;;;;;1.70;1.60;;;;;;;;;;4993276;28;20210;-59
2024/02/12 00:19:37;;;;;;;2.03;1.93;;;;;;;;;;4993163;28;20678;-59
2024/02/12 00:22:06;;;;;;;2.07;1.97;;;;;;;;;;4993112;28;20242;-59
2024/02/12 00:24:34;;;;;;;2.13;2.00;;;;;;;;;;4991421;28;20201;-59
2024/02/12 00:27:02;;;;;;;2.43;2.03;;;;;;;;;;4993386;28;20213;-59
2024/02/12 00:29:30;;;;;;;3.90;2.33;;;;;;;;;;4990746;28;20743;-59
2024/02/12 00:31:58;;;;;;;2.80;2.60;;;;;;;;;;4992877;28;20672;-59
2024/02/12 00:34:26;;;;;;;2.10;2.00;;;;;;;;;;4988798;28;20575;-59
2024/02/12 00:36:53;;;;;;;2.03;1.83;;;;;;;;;;4993257;28;20214;-58
2024/02/12 00:39:23;;;;;;;2.80;2.30;;;;;;;;;;4993005;28;20276;-59
2024/02/12 00:41:51;;;;;;;2.40;1.80;;;;;;;;;;4993008;28;20210;-58
2024/02/12 00:44:18;;;;;;;3.10;2.83;;;;;;;;;;4991176;28;20198;-58
2024/02/12 00:46:47;;;;;;;2.70;2.50;;;;;;;;;;4992790;28;20205;-58
2024/02/12 00:49:14;;;;;;;3.57;2.73;;;;;;;;;;4992783;28;20597;-58
2024/02/12 00:51:42;;;;;;;2.80;2.60;;;;;;;;;;4992781;28;20214;-58
2024/02/12 00:54:12;;;;;;;2.47;2.27;;;;;;;;;;4991101;28;20229;-58
2024/02/12 00:56:44;;;;;;;2.83;2.57;;;;;;;;;;4992900;28;20297;-58
2024/02/12 00:59:11;;;;;;;3.07;2.80;;;;;;;;;;4992596;28;20324;-58
2024/02/12 01:01:39;;;;;;;2.47;2.37;;;;;;;;;;4996382;28;20212;-58
2024/02/12 01:04:07;;;;;;;4.53;2.97;;;;;;;;;;4979565;28;20198;-58
2024/02/12 01:06:34;;;;;;;3.17;2.97;;;;;;;;;;4973481;28;20231;-58
2024/02/12 01:09:02;;;;;;;3.37;2.83;;;;;;;;;;4973310;28;20226;-58
2024/02/12 01:11:30;;;;;;;2.80;2.60;;;;;;;;;;4973482;28;20213;-58
2024/02/12 01:13:58;;;;;;;3.63;3.33;;;;;;;;;;4984088;28;20279;-58
2024/02/12 01:16:27;;;;;;;3.27;3.07;;;;;;;;;;4992783;28;20205;-58
2024/02/12 01:18:55;;;;;;;4.03;3.73;;;;;;;;;;4992662;28;20225;-58
2024/02/12 01:21:22;;;;;;;2.83;2.63;;;;;;;;;;4995906;28;20262;-58
2024/02/12 01:23:50;;;;;;;3.77;3.47;;;;;;;;;;4990679;28;20201;-59
2024/02/12 01:26:18;;;;;;;4.70;3.37;;;;;;;;;;4992799;28;20241;-58
2024/02/12 01:28:46;;;;;;;4.17;3.80;;;;;;;;;;4992506;28;20304;-58
2024/02/12 01:31:18;;;;;;;3.60;3.30;;;;;;;;;;4992721;28;20217;-58
2024/02/12 01:33:46;;;;;;;4.63;3.63;;;;;;;;;;4990918;28;20793;-58
2024/02/12 01:36:14;;;;;;;4.53;3.67;;;;;;;;;;4993001;28;20208;-59
2024/02/12 01:38:42;;;;;;;3.70;3.40;;;;;;;;;;4992645;28;20721;-58
2024/02/12 01:41:09;;;;;;;3.80;3.50;;;;;;;;;;4992744;28;20249;-58
2024/02/12 01:43:38;;;;;;;3.17;2.97;;;;;;;;;;4991628;28;20196;-58
2024/02/12 01:46:06;;;;;;;3.87;3.33;;;;;;;;;;4992733;28;20704;-58
2024/02/12 01:48:35;;;;;;;3.00;2.80;;;;;;;;;;4992615;28;20260;-58
2024/02/12 01:51:06;;;;;;;4.53;2.87;;;;;;;;;;4992261;28;20216;-59
2024/02/12 01:53:33;;;;;;;4.57;2.60;;;;;;;;;;4990651;28;20226;-58
2024/02/12 01:56:01;;;;;;;2.33;2.20;;;;;;;;;;4992447;28;20264;-58
2024/02/12 01:58:30;;;;;;;3.53;2.70;;;;;;;;;;4992250;28;20295;-59
2024/02/12 02:00:57;;;;;;;5.27;3.20;;;;;;;;;;4992335;28;20209;-59
2024/02/12 02:03:25;;;;;;;3.83;3.57;;;;;;;;;;4984967;28;20206;-58
2024/02/12 02:05:54;;;;;;;4.20;3.90;;;;;;;;;;4972855;28;20353;-58
2024/02/12 02:08:21;;;;;;;3.23;3.00;;;;;;;;;;4972573;28;20775;-59
2024/02/12 02:10:49;;;;;;;4.20;3.10;;;;;;;;;;4972801;28;20241;-58
2024/02/12 02:13:17;;;;;;;3.40;3.20;;;;;;;;;;4972158;28;20202;-58
2024/02/12 02:15:44;;;;;;;3.57;3.00;;;;;;;;;;4981979;28;20210;-58
2024/02/12 02:18:11;;;;;;;3.50;3.20;;;;;;;;;;4991022;28;20222;-58
2024/02/12 02:20:39;;;;;;;3.93;3.40;;;;;;;;;;4994019;28;20205;-59
2024/02/12 02:23:07;;;;;;;3.87;3.27;;;;;;;;;;4995172;28;20200;-58
2024/02/12 02:25:36;;;;;;;4.53;4.20;;;;;;;;;;4995905;28;20260;-58
2024/02/12 02:28:04;;;;;;;5.03;3.37;;;;;;;;;;4995741;28;20229;-58
2024/02/12 02:30:31;;;;;;;4.03;3.63;;;;;;;;;;4994446;28;20202;-58
2024/02/12 02:32:59;;;;;;;3.53;3.33;;;;;;;;;;4974247;28;20577;-58
2024/02/12 02:35:26;;;;;;;5.37;3.97;;;;;;;;;;4976087;28;20336;-58
2024/02/12 02:37:54;;;;;;;4.27;3.87;;;;;;;;;;4973832;28;20308;-58
2024/02/12 02:40:22;;;;;;;4.23;3.93;;;;;;;;;;4976161;28;20203;-58
2024/02/12 02:42:52;;;;;;;3.63;3.33;;;;;;;;;;4975312;28;20211;-58
2024/02/12 02:45:21;;;;;;;3.47;3.17;;;;;;;;;;4976933;28;20740;-59
2024/02/12 02:47:49;;;;;;;4.17;3.60;;;;;;;;;;4975742;28;20229;-58
2024/02/12 02:50:16;;;;;;;3.63;3.33;;;;;;;;;;4976094;28;20264;-58
2024/02/12 02:52:44;;;;;;;3.23;2.93;;;;;;;;;;4974945;28;20208;-58
2024/02/12 02:55:14;;;;;;;4.23;3.93;;;;;;;;;;4975470;28;20664;-58
2024/02/12 02:57:41;;;;;;;4.63;4.10;;;;;;;;;;4975371;28;20259;-58
2024/02/12 03:00:11;;;;;;;4.57;4.23;;;;;;;;;;4981099;28;20210;-59
2024/02/12 03:02:38;;;;;;;4.40;4.00;;;;;;;;;;4994237;28;20209;-58
2024/02/12 03:05:06;;;;;;;4.73;3.80;;;;;;;;;;4994718;28;20252;-58
2024/02/12 03:07:35;;;;;;;5.43;3.80;;;;;;;;;;4994612;28;20213;-58
2024/02/12 03:10:02;;;;;;;4.40;3.73;;;;;;;;;;4994504;28;20585;-58
2024/02/12 03:12:30;;;;;;;6.33;5.13;;;;;;;;;;4994599;28;20209;-58
2024/02/12 03:14:59;;;;;;;4.47;4.07;;;;;;;;;;4993533;28;20742;-62
2024/02/12 03:17:32;;;;;;;3.50;3.20;;;;;;;;;;4993380;28;20202;-58
2024/02/12 03:19:59;;;;;;;4.37;3.60;;;;;;;;;;4994388;28;20256;-58
2024/02/12 03:22:31;;;;;;;5.53;3.23;;;;;;;;;;4994386;28;20201;-59
2024/02/12 03:25:00;;;;;;;2.97;2.70;;;;;;;;;;4993577;28;20738;-58
2024/02/12 03:27:30;;;;;;;3.60;3.40;;;;;;;;;;4994100;28;20241;-58
2024/02/12 03:29:57;;;;;;;3.30;3.00;;;;;;;;;;4994196;28;20754;-58
2024/02/12 03:32:25;;;;;;;3.10;2.90;;;;;;;;;;4991004;28;20237;-59
2024/02/12 03:34:54;;;;;;;3.10;2.90;;;;;;;;;;4973925;28;20305;-58
2024/02/12 03:37:21;;;;;;;2.57;2.43;;;;;;;;;;4974595;28;20288;-58
2024/02/12 03:39:48;;;;;;;3.37;3.13;;;;;;;;;;4974650;28;20210;-58
2024/02/12 03:42:16;;;;;;;2.80;2.60;;;;;;;;;;4974568;28;20251;-58
2024/02/12 03:44:44;;;;;;;3.97;3.13;;;;;;;;;;4973760;28;20736;-58
2024/02/12 03:47:11;;;;;;;3.70;3.40;;;;;;;;;;4974476;28;20245;-58
2024/02/12 04:00:45;;;;;;;3.10;2.90;;;;;;;;;;4974249;28;20231;-58
2024/02/12 04:03:13;;;;;;;3.13;2.93;;;;;;;;;;4973544;28;20205;-58
2024/02/12 04:05:41;;;;;;;3.40;3.10;;;;;;;;;;4974662;28;20678;-58
2024/02/12 04:08:10;;;;;;;3.17;2.57;;;;;;;;;;4954799;29;20254;-58
2024/02/12 04:10:38;;;;;;;2.27;2.17;;;;;;;;;;4954781;29;20242;-58
2024/02/12 04:13:05;;;;;;;2.67;2.53;;;;;;;;;;4953866;29;20294;-58
2024/02/12 04:15:33;;;;;;;2.00;1.90;;;;;;;;;;4954435;29;20302;-58
2024/02/12 04:18:00;;;;;;;2.27;2.07;;;;;;;;;;4954786;29;20223;-58
2024/02/12 04:20:27;;;;;;;1.90;1.73;;;;;;;;;;4954913;29;20211;-58
2024/02/12 04:22:55;;;;;;;2.13;1.93;;;;;;;;;;4969030;28;20199;-58
2024/02/12 04:25:23;;;;;;;1.50;1.40;;;;;;;;;;4991549;28;20197;-58
2024/02/12 04:27:54;;;;;;;2.07;1.97;;;;;;;;;;4992933;28;20678;-58
2024/02/12 04:30:24;;;;;;;1.87;1.77;;;;;;;;;;4993000;28;20797;-58
2024/02/12 04:32:51;;;;;;;2.70;2.50;;;;;;;;;;4992309;28;20260;-58
2024/02/12 04:35:18;;;;;;;2.30;2.20;;;;;;;;;;4992821;28;20778;-58
2024/02/12 04:37:45;;;;;;;2.67;1.77;;;;;;;;;;4990017;28;20217;-58
2024/02/12 04:40:13;;;;;;;2.63;2.37;;;;;;;;;;4993026;28;20232;-58
2024/02/12 04:42:42;;;;;;;2.90;2.70;;;;;;;;;;4989839;28;20213;-58
2024/02/12 04:45:11;;;;;;;3.37;2.60;;;;;;;;;;4992916;28;20203;-58
2024/02/12 04:47:38;;;;;;;3.50;3.17;;;;;;;;;;4993212;28;20278;-58
2024/02/12 04:50:07;;;;;;;2.87;2.67;;;;;;;;;;4992804;28;20625;-58
2024/02/12 04:52:34;;;;;;;3.03;2.83;;;;;;;;;;4991133;28;20236;-58
2024/02/12 04:55:02;;;;;;;3.33;3.03;;;;;;;;;;4975248;28;20230;-60
2024/02/12 04:57:30;;;;;;;3.30;3.10;;;;;;;;;;4974638;28;20214;-58
2024/02/12 04:59:59;;;;;;;3.00;2.80;;;;;;;;;;4973421;28;20202;-58
2024/02/12 05:02:28;;;;;;;3.63;3.17;;;;;;;;;;4973396;28;20213;-58
2024/02/12 05:04:55;;;;;;;2.97;2.77;;;;;;;;;;4972643;28;20206;-58
2024/02/12 05:07:26;;;;;;;2.80;2.60;;;;;;;;;;4973713;28;20210;-58
2024/02/12 05:09:53;;;;;;;2.57;2.10;;;;;;;;;;4978499;28;20868;-58
2024/02/12 05:12:24;;;;;;;2.77;2.50;;;;;;;;;;4992611;28;20216;-58
2024/02/12 05:14:52;;;;;;;2.67;2.53;;;;;;;;;;4994952;28;20230;-58
2024/02/12 05:17:28;;;;;;;3.40;3.03;;;;;;;;;;4991903;28;20193;-58
2024/02/12 05:22:41;;;;;;;2.70;2.50;;;;;;;;;;4991909;28;20197;-58
2024/02/12 05:25:09;;;;;;;3.70;2.80;;;;;;;;;;4993000;28;20213;-58
2024/02/12 05:27:36;;;;;;;2.50;2.33;;;;;;;;;;4991557;28;20225;-58
2024/02/12 05:30:03;;;;;;;2.93;2.67;;;;;;;;;;4992681;28;20205;-59
2024/02/12 05:32:32;;;;;;;2.77;2.57;;;;;;;;;;4992886;28;20218;-58
2024/02/12 05:34:59;;;;;;;2.23;2.13;;;;;;;;;;4991639;28;20227;-58
2024/02/12 05:37:26;;;;;;;2.97;2.77;;;;;;;;;;4993206;28;20209;-58
2024/02/12 05:39:53;;;;;;;3.10;2.90;;;;;;;;;;4993015;28;20210;-58
2024/02/12 05:42:20;;;;;;;2.73;2.53;;;;;;;;;;4991389;28;20201;-58
2024/02/12 05:44:48;;;;;;;2.90;2.70;;;;;;;;;;4952601;29;20205;-58
2024/02/12 05:47:15;;;;;;;1.80;1.70;;;;;;;;;;4953375;29;20290;-58
2024/02/12 05:49:44;;;;;;;3.40;2.80;;;;;;;;;;4953395;29;20215;-58
2024/02/12 05:52:12;;;;;;;2.77;2.53;;;;;;;;;;4953818;29;20211;-58
2024/02/12 05:54:41;;;;;;;3.07;2.80;;;;;;;;;;4954935;28;20226;-58
2024/02/12 05:57:09;;;;;;;3.07;2.87;;;;;;;;;;4957584;29;20638;-58
2024/02/12 05:59:36;;;;;;;3.53;3.23;;;;;;;;;;4964774;28;20227;-58
2024/02/12 06:02:03;;;;;;;2.60;2.40;;;;;;;;;;4996160;28;20202;-58
2024/02/12 06:04:31;;;;;;;2.60;2.50;;;;;;;;;;4995180;28;20214;-58
2024/02/12 06:06:59;;;;;;;3.83;3.27;;;;;;;;;;4996059;28;20206;-58
2024/02/12 06:09:27;;;;;;;2.67;2.47;;;;;;;;;;4995634;28;20748;-59
2024/02/12 06:11:54;;;;;;;2.93;2.67;;;;;;;;;;4995869;28;20783;-58
2024/02/12 06:14:22;;;;;;;3.23;3.07;;;;;;;;;;4994902;28;20214;-58
2024/02/12 06:16:49;;;;;;;4.10;3.17;;;;;;;;;;4983733;28;20233;-58
2024/02/12 06:19:16;;;;;;;7.00;3.30;;;;;;;;;;4976360;28;20602;-58
2024/02/12 06:21:46;;;;;;;2.80;2.60;;;;;;;;;;4976230;28;20213;-58
2024/02/12 06:24:15;;;;;;;3.30;3.10;;;;;;;;;;4975277;28;20238;-58
2024/02/12 06:26:43;;;;;;;4.07;3.17;;;;;;;;;;4983717;28;20673;-58
2024/02/12 06:29:11;;;;;;;3.77;3.47;;;;;;;;;;4995684;28;20590;-58
2024/02/12 06:31:42;;;;;;;3.53;3.23;;;;;;;;;;4996235;28;20209;-58
2024/02/12 06:34:09;;;;;;;3.73;3.37;;;;;;;;;;4994494;28;20210;-58
2024/02/12 06:36:37;;;;;;;4.07;3.77;;;;;;;;;;4995276;28;20225;-58
2024/02/12 06:39:05;;;;;;;4.43;4.13;;;;;;;;;;4995103;28;20229;-58
2024/02/12 06:41:33;;;;;;;4.17;3.77;;;;;;;;;;4994370;28;20212;-58
2024/02/12 06:44:01;;;;;;;4.33;4.03;;;;;;;;;;4991953;28;20674;-59
2024/02/12 06:46:28;;;;;;;4.33;4.03;;;;;;;;;;4995186;28;20577;-59
2024/02/12 06:48:55;;;;;;;3.90;3.60;;;;;;;;;;4992833;28;20261;-58
2024/02/12 06:51:23;;;;;;;3.73;3.47;;;;;;;;;;4995049;28;20268;-58
2024/02/12 06:53:50;;;;;;;4.50;3.43;;;;;;;;;;4994164;28;20237;-58
2024/02/12 06:56:19;;;;;;;3.97;3.57;;;;;;;;;;4995034;28;20284;-58
2024/02/12 06:58:47;;;;;;;6.00;3.70;;;;;;;;;;4993732;28;20265;-58
2024/02/12 07:01:15;;;;;;;4.20;3.87;;;;;;;;;;4994865;28;20237;-58
2024/02/12 07:03:46;;;;;;;4.63;4.33;;;;;;;;;;4993941;28;20239;-58
2024/02/12 07:06:13;;;;;;;5.33;4.60;;;;;;;;;;4993984;28;20213;-58
2024/02/12 07:08:41;;;;;;;4.30;3.90;;;;;;;;;;4994833;28;20688;-58
2024/02/12 07:11:09;;;;;;;4.50;4.20;;;;;;;;;;4994531;28;20206;-58
2024/02/12 07:13:36;;;;;;;4.47;3.70;;;;;;;;;;4990185;28;20684;-58
2024/02/12 07:16:05;;;;;;;6.47;4.70;;;;;;;;;;4975304;28;20662;-59
2024/02/12 07:18:32;;;;;;;7.03;5.27;;;;;;;;;;4974845;28;20745;-58
2024/02/12 07:20:59;;;;;;;5.27;4.73;;;;;;;;;;4974961;28;20256;-58
2024/02/12 07:23:27;;;;;;;6.22;5.40;;;;;;;;;;4971506;28;20478;-59
2024/02/12 07:25:54;;;;;;;4.97;4.57;;;;;;;;;;4974544;28;20229;-58
2024/02/12 07:28:22;;;;;;;4.53;4.13;;;;;;;;;;4974243;28;20458;-58
2024/02/12 07:30:50;;;;;;;6.53;4.40;;;;;;;;;;4975247;28;20678;-58
2024/02/12 07:33:19;;;;;;;5.83;4.13;;;;;;;;;;4973819;28;20211;-62
2024/02/12 07:35:46;;;;;;;8.03;5.20;;;;;;;;;;4974849;28;20677;-60
2024/02/12 07:38:13;;;;;;;5.37;3.87;;;;;;;;;;4974601;28;20523;-60
2024/02/12 07:40:41;;;;;;;7.27;4.63;;;;;;;;;;4974666;28;20202;-60
2024/02/12 07:43:08;;;;;;;7.47;5.90;;;;;;;;;;4973844;28;20736;-61
2024/02/12 07:45:36;;;;;;;3.80;3.37;;;;;;;;;;4970645;28;20198;-60
2024/02/12 07:48:03;;;;;;;5.83;3.20;;;;;;;;;;4977630;28;20218;-60
2024/02/12 07:50:32;;;;;;;3.73;3.43;;;;;;;;;;4992673;28;20229;-60
2024/02/12 07:52:59;;;;;;;3.13;2.90;;;;;;;;;;4992677;28;20608;-60
2024/02/12 07:55:27;;;;;;;3.40;3.20;;;;;;;;;;4993659;28;20223;-60
2024/02/12 07:57:54;;;;;;;3.63;3.27;;;;;;;;;;4993684;28;20240;-61
2024/02/12 08:00:21;;;;;;;3.27;2.97;;;;;;;;;;4992698;28;20624;-60
2024/02/12 08:02:49;;;;;;;2.83;2.60;;;;;;;;;;4993081;28;20210;-60
2024/02/12 08:05:16;;;;;;;4.90;3.47;;;;;;;;;;4993796;28;20250;-60
2024/02/12 08:07:45;;;;;;;4.60;3.57;;;;;;;;;;4993574;28;20662;-59
2024/02/12 08:10:13;;;;;;;3.70;3.40;;;;;;;;;;4993682;28;20212;-60
2024/02/12 08:12:42;;;;;;;4.43;4.00;;;;;;;;;;4992621;28;20217;-60
2024/02/12 08:15:09;;;;;;;4.93;4.40;;;;;;;;;;4993318;28;20201;-60
2024/02/12 08:17:37;;;;;;;6.37;3.97;;;;;;;;;;4979134;28;20738;-59
2024/02/12 08:20:05;;;;;;;5.67;5.20;;;;;;;;;;4974662;28;20209;-60
2024/02/12 08:22:33;;;;;;;4.07;3.67;;;;;;;;;;4973868;28;20585;-60
2024/02/12 08:25:03;;;;;;;4.13;3.70;;;;;;;;;;4973473;28;20266;-60
2024/02/12 08:27:30;;;;;;;3.77;3.47;;;;;;;;;;4973926;28;20237;-60
2024/02/12 08:29:57;;;;;;;4.00;3.53;;;;;;;;;;4973821;28;20261;-59
2024/02/12 08:32:28;;;;;;;4.17;3.10;;;;;;;;;;4990151;28;20202;-64
2024/02/12 08:34:55;;;;;;;3.73;3.43;;;;;;;;;;4992390;28;20231;-60
2024/02/12 08:37:26;;;;;;;3.87;3.17;;;;;;;;;;4992761;28;20816;-60
2024/02/12 08:39:53;;;;;;;3.70;3.40;;;;;;;;;;4992961;28;20252;-60
2024/02/12 08:42:26;;;;;;;2.07;1.97;;;;;;;;;;4992836;28;20648;-61
2024/02/12 08:44:53;;;;;;;3.47;1.97;;;;;;;;;;4992212;28;20264;-60
2024/02/12 08:47:20;;;;;;;3.43;2.50;;;;;;;;;;4990683;28;20869;-61
2024/02/12 08:49:47;;;;;;;1.97;1.87;;;;;;;;;;4968184;28;20250;-61
2024/02/12 08:52:15;;;;;;;2.33;2.20;;;;;;;;;;4954594;29;20646;-60
2024/02/12 08:54:42;;;;;;;3.30;3.03;;;;;;;;;;4951480;29;20218;-60
2024/02/12 08:57:14;;;;;;;2.30;2.00;;;;;;;;;;4954477;29;20265;-60
2024/02/12 08:59:44;;;;;;;3.00;2.80;;;;;;;;;;4954266;29;20272;-60
2024/02/12 09:02:12;;;;;;;2.90;2.70;;;;;;;;;;4954350;29;20207;-60
2024/02/12 09:04:39;;;;;;;3.23;3.13;;;;;;;;;;4961054;28;20230;-60
2024/02/12 09:07:07;;;;;;;2.47;2.33;;;;;;;;;;4976965;28;20202;-60
2024/02/12 09:09:34;;;;;;;3.97;2.80;;;;;;;;;;4973304;28;20318;-60
2024/02/12 09:12:01;;;;;;;3.03;2.83;;;;;;;;;;4973223;28;20211;-61
2024/02/12 09:14:28;;;;;;;3.93;3.47;;;;;;;;;;4972797;28;20365;-59
2024/02/12 09:16:58;;;;;;;3.73;3.40;;;;;;;;;;4972996;28;20225;-60
2024/02/12 09:19:25;;;;;;;5.50;3.60;;;;;;;;;;4973013;28;20252;-60
2024/02/12 09:21:52;;;;;;;3.53;3.23;;;;;;;;;;4986276;28;20252;-60
2024/02/12 09:24:19;;;;;;;3.20;3.00;;;;;;;;;;4991860;28;20206;-60
2024/02/12 09:26:47;;;;;;;3.20;3.00;;;;;;;;;;4993102;28;20202;-60
2024/02/12 09:29:14;;;;;;;3.27;3.03;;;;;;;;;;4995360;28;20284;-60
2024/02/12 09:31:41;;;;;;;3.73;3.53;;;;;;;;;;4999238;28;20201;-60
2024/02/12 09:34:10;;;;;;;3.73;3.47;;;;;;;;;;4998507;28;20260;-60
2024/02/12 09:36:42;;;;;;;3.97;3.10;;;;;;;;;;4998893;28;20233;-60
2024/02/12 09:39:09;;;;;;;2.50;2.30;;;;;;;;;;4998453;28;20220;-59
2024/02/12 09:41:38;;;;;;;2.93;2.73;;;;;;;;;;4998819;28;20636;-60
2024/02/12 09:44:08;;;;;;;4.70;2.47;;;;;;;;;;4997885;28;20206;-60
2024/02/12 09:46:38;;;;;;;1.97;1.83;;;;;;;;;;4998610;28;20207;-60
2024/02/12 09:49:06;;;;;;;2.63;2.43;;;;;;;;;;4998760;28;20223;-60
2024/02/12 09:51:35;;;;;;;2.50;2.30;;;;;;;;;;4998751;28;20253;-61
2024/02/12 09:54:03;;;;;;;3.90;2.73;;;;;;;;;;4996964;28;20202;-60
2024/02/12 09:56:31;;;;;;;2.50;2.30;;;;;;;;;;4998488;28;20221;-60
2024/02/12 09:58:58;;;;;;;3.03;1.80;;;;;;;;;;4998325;28;20237;-60
2024/02/12 10:01:26;;;;;;;3.10;2.50;;;;;;;;;;4996780;28;20685;-60
2024/02/12 10:03:54;;;;;;;3.67;2.57;;;;;;;;;;4978230;28;20257;-60
2024/02/12 10:06:21;;;;;;;3.60;2.57;;;;;;;;;;4979068;28;20207;-60
2024/02/12 10:08:50;;;;;;;2.50;2.33;;;;;;;;;;4979251;28;20228;-60
2024/02/12 10:11:20;;;;;;;3.57;3.03;;;;;;;;;;4978887;28;20230;-60
2024/02/12 10:13:51;;;;;;;3.97;3.40;;;;;;;;;;4978115;28;20245;-60
2024/02/12 10:16:19;;;;;;;5.60;4.27;;;;;;;;;;4978941;28;20261;-61
2024/02/12 10:18:46;;;;;;;4.57;3.83;;;;;;;;;;4978937;28;20718;-60
2024/02/12 10:21:15;;;;;;;3.93;3.63;;;;;;;;;;4978977;28;20210;-61
2024/02/12 10:23:43;;;;;;;4.93;3.17;;;;;;;;;;4978046;28;20216;-61
2024/02/12 10:26:12;;;;;;;4.60;3.40;;;;;;;;;;4979374;28;20195;-61
2024/02/12 10:28:39;;;;;;;5.07;3.83;;;;;;;;;;4978840;28;20261;-61
2024/02/12 10:31:06;;;;;;;4.10;3.70;;;;;;;;;;4978994;28;20646;-61
2024/02/12 10:33:36;;;;;;;4.63;2.47;;;;;;;;;;4977739;28;20208;-60
2024/02/12 10:36:06;;;;;;;2.03;1.93;;;;;;;;;;4978758;28;20313;-61
2024/02/12 10:38:35;;;;;;;1.90;1.80;;;;;;;;;;4978601;28;20231;-60
2024/02/12 10:41:04;;;;;;;1.80;1.70;;;;;;;;;;4976505;28;20849;-61
2024/02/12 10:43:33;;;;;;;2.80;2.60;;;;;;;;;;4975493;28;20199;-61
2024/02/12 10:46:02;;;;;;;1.87;1.77;;;;;;;;;;4975479;28;20262;-61
2024/02/12 10:48:30;;;;;;;1.73;1.63;;;;;;;;;;4975467;28;20231;-61
2024/02/12 10:50:58;;;;;;;0.90;0.90;;;;;;;;;;4975615;28;20235;-60
2024/02/12 10:53:26;;;;;;;1.40;1.30;;;;;;;;;;4972532;28;20211;-61
2024/02/12 10:55:54;;;;;;;1.10;0.93;;;;;;;;;;4975481;28;20204;-61
2024/02/12 10:58:21;;;;;;;1.90;1.13;;;;;;;;;;4972937;28;20245;-60
2024/02/12 11:00:57;;;;;;;0.73;0.73;;;;;;;;;;4976087;28;20204;-61
2024/02/12 11:03:32;;;;;;;1.73;0.80;;;;;;;;;;4974541;28;20599;-61
2024/02/12 11:06:01;;;;;;;0.70;0.70;;;;;;;;;;4976151;28;20207;-61
2024/02/12 11:08:28;;;;;;;1.93;1.47;;;;;;;;;;4978276;28;20223;-61
2024/02/12 11:11:00;;;;;;;0.70;0.70;;;;;;;;;;4975655;28;20203;-57
2024/02/12 11:13:35;;;;;;;0.80;0.70;;;;;;;;;;4970397;28;20571;-60
2024/02/12 11:16:06;;;;;;;1.63;0.80;;;;;;;;;;4992645;28;20245;-59
2024/02/12 11:18:37;;;;;;;0.60;0.60;;;;;;;;;;4993996;28;20329;-59
2024/02/12 11:21:08;;;;;;;0.80;0.80;;;;;;;;;;4994348;28;20673;-60
2024/02/12 11:23:40;;;;;;;1.17;1.17;;;;;;;;;;4993666;28;20210;-60
2024/02/12 11:26:07;;;;;;;1.87;1.77;;;;;;;;;;4994472;28;20815;-59
2024/02/12 11:28:36;;;;;;;1.83;1.73;;;;;;;;;;4993352;28;20626;-60
2024/02/12 11:31:05;;;;;;;1.30;1.20;;;;;;;;;;4994337;28;20232;-59
2024/02/12 11:33:32;;;;;;;2.20;1.50;;;;;;;;;;4993536;28;20206;-60
2024/02/12 11:36:07;;;;;;;1.30;1.30;;;;;;;;;;4994255;28;20210;-60
2024/02/12 11:38:35;;;;;;;1.60;1.20;;;;;;;;;;4994268;28;20296;-60
2024/02/12 11:41:05;;;;;;;1.37;1.27;;;;;;;;;;4993910;28;20211;-60
2024/02/12 11:43:33;;;;;;;1.83;1.73;;;;;;;;;;4993208;28;20660;-60
2024/02/12 11:46:02;;;;;;;0.90;0.90;;;;;;;;;;4993577;28;20744;-59
2024/02/12 11:48:31;;;;;;;1.50;0.80;;;;;;;;;;4993741;28;20791;-60
2024/02/12 11:50:58;;;;;;;0.93;0.93;;;;;;;;;;4993946;28;20210;-60
2024/02/12 11:53:26;;;;;;;1.90;0.70;;;;;;;;;;4992856;28;20733;-60
2024/02/12 11:55:53;;;;;;;0.70;0.40;;;;;;;;;;4993775;28;20235;-60
2024/02/12 11:58:21;;;;;;;1.73;0.60;;;;;;;;;;4993396;28;20285;-60
2024/02/12 12:00:48;;;;;;;0.40;0.40;;;;;;;;;;4992659;28;20260;-60
2024/02/12 12:03:15;;;;;;;0.60;0.60;;;;;;;;;;4992873;28;20203;-60
2024/02/12 12:05:44;;;;;;;1.70;0.63;;;;;;;;;;4993639;28;20206;-59
2024/02/12 12:08:11;;;;;;;0.70;0.70;;;;;;;;;;4993509;28;20276;-60
2024/02/12 12:10:40;;;;;;;1.43;0.50;;;;;;;;;;4993569;28;20207;-60
2024/02/12 12:13:09;;;;;;;0.63;0.63;;;;;;;;;;4992861;28;20650;-60
2024/02/12 12:15:36;;;;;;;1.17;0.90;;;;;;;;;;4993443;28;20330;-61
2024/02/12 12:18:04;;;;;;;1.53;0.90;;;;;;;;;;4982924;28;20636;-59
2024/02/12 12:20:34;;;;;;;0.90;0.80;;;;;;;;;;4973836;28;20747;-60
2024/02/12 12:23:09;;;;;;;1.97;0.60;;;;;;;;;;4973030;28;20214;-60
2024/02/12 12:25:37;;;;;;;0.93;0.60;;;;;;;;;;4973849;28;20214;-59
2024/02/12 12:28:06;;;;;;;1.13;1.13;;;;;;;;;;4973931;28;20227;-59
2024/02/12 12:30:34;;;;;;;0.77;0.77;;;;;;;;;;4973664;28;20630;-59
2024/02/12 12:33:01;;;;;;;6.13;1.50;;;;;;;;;;4972578;28;20208;-60
2024/02/12 12:35:28;;;;;;;2.07;1.10;;;;;;;;;;4974252;28;20202;-60
2024/02/12 12:37:58;;;;;;;0.97;0.70;;;;;;;;;;4974122;28;20710;-60
2024/02/12 12:40:27;;;;;;;0.70;0.70;;;;;;;;;;4975732;28;20208;-60
2024/02/12 12:42:57;;;;;;;1.33;0.90;;;;;;;;;;4972980;28;20218;-59
2024/02/12 12:45:24;;;;;;;2.83;1.17;;;;;;;;;;4973491;28;20218;-59
2024/02/12 12:47:51;;;;;;;1.77;0.87;;;;;;;;;;4973424;28;20728;-60
2024/02/12 12:50:19;;;;;;;1.17;1.07;;;;;;;;;;4974571;28;20199;-60
2024/02/12 12:52:46;;;;;;;0.80;0.80;;;;;;;;;;4973058;28;20253;-60
2024/02/12 12:55:14;;;;;;;0.73;0.73;;;;;;;;;;4964442;28;20212;-60
2024/02/12 12:57:43;;;;;;;1.27;0.90;;;;;;;;;;4954253;29;20266;-60
2024/02/12 13:00:18;;;;;;;3.03;1.00;;;9.20;99.90;;;;;;4953960;29;20238;-59
2024/02/12 13:02:45;;;;;;;0.93;0.93;;;10.00;99.90;;;;;;4951286;28;20213;-59
2024/02/12 13:05:13;;;;;;;1.37;1.20;;;9.90;99.90;;;;;;4953629;28;20215;-59
2024/02/12 13:07:42;;;;;;;1.00;0.70;;;9.50;99.90;;;;;;4962333;28;20286;-59
2024/02/12 13:10:10;;;;;;;1.00;0.50;;;9.30;99.90;;;;;;4973452;28;20257;-59
2024/02/12 13:12:38;;;;;;;1.07;0.60;;;9.10;99.90;;;;;;4972980;28;20225;-59
2024/02/12 13:15:10;;;;;;;0.80;0.70;;;8.50;99.90;;;;;;4973111;28;20761;-59
2024/02/12 13:17:37;;;;;;;1.30;0.80;;;8.70;99.90;;;;;;4973531;28;20700;-60
2024/02/12 13:20:10;;;;;;;1.80;0.67;;;8.60;99.90;;;;;;4973418;28;20241;-60
2024/02/12 13:22:37;;;;;;;0.73;0.47;;;8.90;99.90;;;;;;4972787;28;20202;-60
2024/02/12 13:25:05;;;;;;;1.17;0.80;;;8.70;99.90;;;;;;4974440;28;20207;-60
2024/02/12 13:27:33;;;;;;;1.00;1.00;;;8.80;99.90;;;;;;4972819;28;20670;-59
2024/02/12 13:30:00;;;;;;;1.20;1.20;;;8.80;99.90;;;;;;4968059;28;20199;-59
2024/02/12 13:32:31;;;;;;;1.73;0.93;;;9.00;99.90;;;;;;4953759;29;20275;-59
2024/02/12 13:34:57;;;;;;;0.50;0.40;;;9.20;99.90;;;;;;4952701;29;20212;-60
2024/02/12 13:37:26;;;;;;;0.53;0.53;;;9.10;99.90;;;;;;4953425;28;20224;-59
2024/02/12 13:39:53;;;;;;;1.93;0.60;;;9.20;99.90;;;;;;4953490;28;20244;-59
2024/02/12 13:42:21;;;;;;;2.77;1.77;;;9.30;99.90;;;;;;4970255;28;20206;-59
2024/02/12 13:44:47;;;;;;;3.70;2.33;;;9.50;99.90;;;;;;4972165;28;20203;-60
2024/02/12 13:47:14;;;;;;;2.37;1.10;;;9.60;99.90;;;;;;4972905;28;20213;-59
2024/02/12 13:49:43;;;;;;;3.23;1.80;;;9.40;99.90;;;;;;4972856;28;20351;-60
2024/02/12 13:52:10;;;;;;;1.10;0.70;;;9.60;99.90;;;;;;4972630;28;20206;-59
2024/02/12 13:54:37;;;;;;;0.50;0.50;;;9.60;99.90;;;;;;4971745;28;20242;-59
2024/02/12 13:57:04;;;;;;;0.97;0.40;;;;;;;;;;4972831;28;20222;-60
2024/02/12 13:59:31;;;;;;;0.50;0.50;;;9.50;99.90;;;;;;4972848;28;20279;-60
2024/02/12 14:01:58;;;;;;;2.07;0.60;;;9.60;99.90;;;;;;4972696;28;20202;-59
2024/02/12 14:04:26;;;;;;;1.00;0.93;;;9.70;99.90;;;;;;4971735;28;20212;-59
2024/02/12 14:06:56;;;;;;;1.93;1.00;;;9.70;99.90;;;;;;4972477;28;20298;-59
2024/02/12 14:09:24;;;;;;;1.33;0.90;;;9.70;99.90;;;;;;4972397;28;20238;-59
2024/02/12 14:11:52;;;;;;;2.00;0.67;;;9.30;99.90;;;;;;4972683;28;20209;-59
2024/02/12 14:14:19;;;;;;;0.80;0.40;;;9.80;99.90;;;;;;4972703;28;20203;-60
2024/02/12 14:16:47;;;;;;;0.70;0.43;;;9.70;99.90;;;;;;4974810;28;20234;-60
2024/02/12 14:19:15;;;;;;;0.50;0.40;;;9.70;99.90;;;;;;4975998;28;20219;-60
2024/02/12 14:21:43;;;;;;;0.40;0.40;;;9.50;99.90;;;;;;4975890;28;20659;-59
2024/02/12 14:24:11;;;;;;;0.93;0.50;;;9.40;99.90;;;;;;4975129;28;20243;-60
2024/02/12 14:26:41;;;;;;;0.80;0.80;;;9.40;99.90;;;;;;4976110;28;20215;-60
2024/02/12 14:29:08;;;;;;;2.67;0.60;;;9.30;99.90;;;;;;4975792;28;20225;-59
2024/02/12 14:31:35;;;;;;;0.83;0.83;;;9.30;99.90;;;;;;4976600;28;20199;-60
2024/02/12 14:34:02;;;;;;;0.87;0.80;;;9.40;99.90;;;;;;4975002;28;20204;-59
2024/02/12 14:36:31;;;;;;;0.87;0.40;;;9.40;99.90;;;;;;4976077;28;20270;-59
2024/02/12 14:38:58;;;;;;;0.73;0.53;;;9.30;99.90;;;;;;4975814;28;20224;-59
2024/02/12 14:41:27;;;;;;;0.30;0.30;;;9.20;99.90;;;;;;4975934;28;20722;-59
2024/02/12 14:43:55;;;;;;;2.10;0.80;;;9.20;99.90;;;;;;4975012;28;20202;-60
2024/02/12 14:46:22;;;;;;;0.50;0.50;;;9.10;99.90;;;;;;4975673;28;20240;-60
2024/02/12 14:48:49;;;;;;;1.60;0.20;;;9.20;99.90;;;;;;4976301;28;20275;-59